createdAt,value
2022-09-15T00:00:52.216Z,15.78
2022-09-15T00:02:56.094Z,15.68
2022-09-15T00:04:59.468Z,15.65
2022-09-15T00:07:03.405Z,15.56
2022-09-15T00:09:06.925Z,15.58
2022-09-15T00:11:12.164Z,15.63
2022-09-15T00:13:17.204Z,15.56
2022-09-15T00:15:20.899Z,15.76
2022-09-15T00:17:24.259Z,15.83
2022-09-15T00:19:27.658Z,15.82
2022-09-15T00:21:33.414Z,15.77
2022-09-15T00:23:37.429Z,15.74
2022-09-15T00:25:45.889Z,15.67
2022-09-15T00:27:49.557Z,15.74
2022-09-15T00:29:54.180Z,15.78
2022-09-15T00:31:57.486Z,15.74
2022-09-15T00:34:03.791Z,15.76
2022-09-15T00:36:09.112Z,15.75
2022-09-15T00:38:14.016Z,15.75
2022-09-15T00:40:17.497Z,15.79
2022-09-15T00:42:22.905Z,15.79
2022-09-15T00:44:54.963Z,15.77
2022-09-15T00:47:18.339Z,15.80
2022-09-15T00:49:26.296Z,15.80
2022-09-15T00:51:38.004Z,15.78
2022-09-15T00:53:42.201Z,15.78
2022-09-15T00:55:47.490Z,15.71
2022-09-15T00:57:54.892Z,15.73
2022-09-15T01:00:00.832Z,15.57
2022-09-15T01:02:12.022Z,15.58
2022-09-15T01:04:16.775Z,15.62
2022-09-15T01:06:25.399Z,15.67
2022-09-15T01:08:34.085Z,15.67
2022-09-15T01:10:39.722Z,15.69
2022-09-15T01:12:43.213Z,15.66
2022-09-15T01:14:46.503Z,15.68
2022-09-15T01:16:57.323Z,15.69
2022-09-15T01:19:33.411Z,15.68
2022-09-15T01:21:42.667Z,15.64
2022-09-15T01:24:30.603Z,15.65
2022-09-15T01:26:59.464Z,15.60
2022-09-15T01:29:37.923Z,15.60
2022-09-15T01:32:00.991Z,15.67
2022-09-15T01:34:08.863Z,15.70
2022-09-15T01:36:15.637Z,15.70
2022-09-15T01:38:29.010Z,15.68
2022-09-15T01:40:37.118Z,15.64
2022-09-15T01:42:43.353Z,15.73
2022-09-15T01:44:53.060Z,15.72
2022-09-15T01:47:01.495Z,15.70
2022-09-15T01:49:07.844Z,15.71
2022-09-15T01:51:11.897Z,15.53
2022-09-15T01:53:18.791Z,15.41
2022-09-15T01:55:26.463Z,15.31
2022-09-15T01:57:30.174Z,15.29
2022-09-15T01:59:35.371Z,15.33
2022-09-15T02:01:45.272Z,15.41
2022-09-15T02:03:55.533Z,15.46
2022-09-15T02:06:03.308Z,15.51
2022-09-15T02:08:15.066Z,15.58
2022-09-15T02:10:25.839Z,15.60
2022-09-15T02:12:35.871Z,15.63
2022-09-15T02:14:49.150Z,15.59
2022-09-15T02:16:55.160Z,15.52
2022-09-15T02:19:08.845Z,15.53
2022-09-15T02:21:18.129Z,15.53
2022-09-15T02:23:26.855Z,15.55
2022-09-15T02:25:34.741Z,15.58
2022-09-15T02:27:44.241Z,15.55
2022-09-15T02:29:49.639Z,15.41
2022-09-15T02:31:57.428Z,15.54
2022-09-15T02:34:07.019Z,15.57
2022-09-15T02:36:14.481Z,15.56
2022-09-15T02:38:18.126Z,15.56
2022-09-15T02:40:22.951Z,15.55
2022-09-15T02:42:27.670Z,15.40
2022-09-15T02:44:31.797Z,15.40
2022-09-15T02:46:35.159Z,15.51
2022-09-15T02:48:39.935Z,15.49
2022-09-15T02:50:43.209Z,15.40
2022-09-15T02:52:46.595Z,15.45
2022-09-15T02:54:50.371Z,15.36
2022-09-15T02:56:53.885Z,15.39
2022-09-15T02:58:57.229Z,15.44
2022-09-15T03:01:02.816Z,15.47
2022-09-15T03:03:06.352Z,15.50
2022-09-15T03:05:12.727Z,15.52
2022-09-15T03:07:16.297Z,15.51
2022-09-15T03:09:19.613Z,15.51
2022-09-15T03:11:24.996Z,15.54
2022-09-15T03:13:28.512Z,15.52
2022-09-15T03:15:31.968Z,15.50
2022-09-15T03:17:36.266Z,15.51
2022-09-15T03:19:39.737Z,15.33
2022-09-15T03:21:44.406Z,15.17
2022-09-15T03:23:48.057Z,14.97
2022-09-15T03:25:51.393Z,14.80
2022-09-15T03:27:54.680Z,14.60
2022-09-15T03:29:57.955Z,14.58
2022-09-15T03:32:01.292Z,14.60
2022-09-15T03:34:04.810Z,14.73
2022-09-15T03:36:08.944Z,14.57
2022-09-15T03:38:13.651Z,14.50
2022-09-15T03:40:17.486Z,14.45
2022-09-15T03:42:21.445Z,14.31
2022-09-15T03:44:25.010Z,14.18
2022-09-15T03:46:28.601Z,14.08
2022-09-15T03:48:34.696Z,14.10
2022-09-15T03:50:38.097Z,14.27
2022-09-15T03:52:41.417Z,14.27
2022-09-15T03:54:46.153Z,14.47
2022-09-15T03:56:50.281Z,14.40
2022-09-15T03:58:54.161Z,14.35
2022-09-15T04:00:57.511Z,14.39
2022-09-15T04:03:01.011Z,14.23
2022-09-15T04:05:04.522Z,14.38
2022-09-15T04:07:08.759Z,14.47
2022-09-15T04:09:12.325Z,14.43
2022-09-15T04:11:18.984Z,14.57
2022-09-15T04:13:26.655Z,14.61
2022-09-15T04:15:36.530Z,14.36
2022-09-15T04:17:40.007Z,14.40
2022-09-15T04:19:45.138Z,14.47
2022-09-15T04:21:48.598Z,14.56
2022-09-15T04:23:52.259Z,14.15
2022-09-15T04:25:57.022Z,14.46
2022-09-15T04:28:02.007Z,14.57
2022-09-15T04:30:06.447Z,14.56
2022-09-15T04:32:10.154Z,14.53
2022-09-15T04:34:13.539Z,14.56
2022-09-15T04:36:19.386Z,14.61
2022-09-15T04:38:22.979Z,14.66
2022-09-15T04:40:26.372Z,14.48
2022-09-15T04:42:31.056Z,14.21
2022-09-15T04:44:35.867Z,14.08
2022-09-15T04:46:39.414Z,14.14
2022-09-15T04:48:43.996Z,13.99
2022-09-15T04:50:50.251Z,13.89
2022-09-15T04:52:53.556Z,13.94
2022-09-15T04:54:57.312Z,13.90
2022-09-15T04:57:00.612Z,13.92
2022-09-15T04:59:04.453Z,14.09
2022-09-15T05:01:11.610Z,14.21
2022-09-15T05:03:15.350Z,14.42
2022-09-15T05:05:19.411Z,14.49
2022-09-15T05:07:22.835Z,14.60
2022-09-15T05:09:29.407Z,14.71
2022-09-15T05:11:32.894Z,14.77
2022-09-15T05:13:37.322Z,14.84
2022-09-15T05:15:40.652Z,14.87
2022-09-15T05:17:45.392Z,14.93
2022-09-15T05:19:48.767Z,14.52
2022-09-15T05:21:52.134Z,14.90
2022-09-15T05:23:56.092Z,14.97
2022-09-15T05:26:01.144Z,15.00
2022-09-15T05:28:04.472Z,15.04
2022-09-15T05:30:37.675Z,15.03
2022-09-15T05:32:32.325Z,14.95
2022-09-15T05:34:37.008Z,15.01
2022-09-15T05:36:40.445Z,14.86
2022-09-15T05:38:44.347Z,14.86
2022-09-15T05:40:48.046Z,14.95
2022-09-15T05:42:51.462Z,15.01
2022-09-15T05:44:54.796Z,15.08
2022-09-15T05:46:58.273Z,15.09
2022-09-15T05:49:01.757Z,15.17
2022-09-15T05:51:07.182Z,15.19
2022-09-15T05:53:10.525Z,15.22
2022-09-15T05:55:16.966Z,15.21
2022-09-15T05:57:20.294Z,15.29
2022-09-15T05:59:23.582Z,15.35
2022-09-15T06:01:28.728Z,15.35
2022-09-15T06:03:32.496Z,15.38
2022-09-15T06:05:36.196Z,15.31
2022-09-15T06:07:40.928Z,15.29
2022-09-15T06:09:45.186Z,15.35
2022-09-15T06:11:48.492Z,15.39
2022-09-15T06:13:51.929Z,15.41
2022-09-15T06:15:55.970Z,15.37
2022-09-15T06:17:59.590Z,15.35
2022-09-15T06:20:06.093Z,15.41
2022-09-15T06:22:09.485Z,16.07
2022-09-15T06:24:14.577Z,16.30
2022-09-15T06:26:19.361Z,16.51
2022-09-15T06:28:24.483Z,16.37
2022-09-15T06:30:27.840Z,16.19
2022-09-15T06:32:31.232Z,16.08
2022-09-15T06:34:34.612Z,15.99
2022-09-15T06:36:39.114Z,15.98
2022-09-15T06:38:43.154Z,15.95
2022-09-15T06:40:57.180Z,16.02
2022-09-15T06:43:01.470Z,16.01
2022-09-15T06:45:05.410Z,15.96
2022-09-15T06:47:10.490Z,15.98
2022-09-15T06:49:14.037Z,16.00
2022-09-15T06:51:20.621Z,16.03
2022-09-15T06:53:24.008Z,16.04
2022-09-15T06:55:28.336Z,15.96
2022-09-15T06:57:33.059Z,15.98
2022-09-15T06:59:36.398Z,16.00
2022-09-15T07:01:39.751Z,16.03
2022-09-15T07:03:44.898Z,16.03
2022-09-15T07:05:48.450Z,15.94
2022-09-15T07:07:51.793Z,15.81
2022-09-15T07:09:55.669Z,15.89
2022-09-15T07:11:58.994Z,15.94
2022-09-15T07:14:03.842Z,15.84
2022-09-15T07:16:12.180Z,15.82
2022-09-15T07:18:15.685Z,15.83
2022-09-15T07:20:18.984Z,15.89
2022-09-15T07:22:22.322Z,16.04
2022-09-15T07:24:25.723Z,16.05
2022-09-15T07:26:30.847Z,15.97
2022-09-15T07:28:34.298Z,16.07
2022-09-15T07:30:40.120Z,16.12
2022-09-15T07:32:43.453Z,16.01
2022-09-15T07:34:47.868Z,16.03
2022-09-15T07:36:51.183Z,16.11
2022-09-15T07:38:54.605Z,16.16
2022-09-15T07:41:04.490Z,16.24
2022-09-15T07:43:07.974Z,16.26
2022-09-15T07:45:12.046Z,16.24
2022-09-15T07:47:17.614Z,16.36
2022-09-15T07:49:21.194Z,16.38
2022-09-15T07:51:25.088Z,16.38
2022-09-15T07:53:30.027Z,16.25
2022-09-15T07:55:33.949Z,16.31
2022-09-15T07:57:37.591Z,16.34
2022-09-15T07:59:41.457Z,16.29
2022-09-15T08:01:44.945Z,16.28
2022-09-15T08:03:51.824Z,16.40
2022-09-15T08:05:58.753Z,16.30
2022-09-15T08:08:02.290Z,16.26
2022-09-15T08:10:06.195Z,16.33
2022-09-15T08:12:09.958Z,16.36
2022-09-15T08:14:13.253Z,16.39
2022-09-15T08:16:19.056Z,16.51
2022-09-15T08:18:22.709Z,16.51
2022-09-15T08:20:27.549Z,16.53
2022-09-15T08:22:31.046Z,16.53
2022-09-15T08:24:34.426Z,16.76
2022-09-15T08:26:38.457Z,16.89
2022-09-15T08:28:42.102Z,16.91
2022-09-15T08:30:45.521Z,16.84
2022-09-15T08:32:49.366Z,16.85
2022-09-15T08:34:52.664Z,16.86
2022-09-15T08:36:57.382Z,16.88
2022-09-15T08:39:00.689Z,16.91
2022-09-15T08:41:07.527Z,16.98
2022-09-15T08:43:18.875Z,16.93
2022-09-15T08:45:25.963Z,16.74
2022-09-15T08:47:35.015Z,16.77
2022-09-15T08:49:52.526Z,16.92
2022-09-15T08:52:01.472Z,16.93
2022-09-15T08:54:11.201Z,16.93
2022-09-15T08:56:18.046Z,16.91
2022-09-15T08:58:24.597Z,16.83
2022-09-15T09:00:28.307Z,16.85
2022-09-15T09:02:47.869Z,16.94
2022-09-15T09:05:03.752Z,17.08
2022-09-15T09:07:19.663Z,17.17
2022-09-15T09:09:32.642Z,17.09
2022-09-15T09:11:48.307Z,17.18
2022-09-15T09:14:00.539Z,17.25
2022-09-15T09:16:26.533Z,17.27
2022-09-15T09:18:59.551Z,17.29
2022-09-15T09:21:10.408Z,17.31
2022-09-15T09:23:18.504Z,17.26
2022-09-15T09:25:27.732Z,17.38
2022-09-15T09:27:34.889Z,17.42
2022-09-15T09:29:43.382Z,17.36
2022-09-15T09:31:50.197Z,17.39
2022-09-15T09:34:00.187Z,17.49
2022-09-15T09:36:04.620Z,17.49
2022-09-15T09:38:10.027Z,17.42
2022-09-15T09:40:16.073Z,17.49
2022-09-15T09:42:20.642Z,17.48
2022-09-15T09:44:31.615Z,17.47
2022-09-15T09:46:35.287Z,17.69
2022-09-15T09:48:39.640Z,17.73
2022-09-15T09:50:44.209Z,17.77
2022-09-15T09:52:47.637Z,17.64
2022-09-15T09:55:01.361Z,17.47
2022-09-15T09:57:29.059Z,17.63
2022-09-15T09:59:35.536Z,17.68
2022-09-15T10:01:38.869Z,17.75
2022-09-15T10:03:43.785Z,17.75
2022-09-15T10:06:02.689Z,17.77
2022-09-15T10:08:06.122Z,17.73
2022-09-15T10:10:20.750Z,17.73
2022-09-15T10:12:30.740Z,17.82
2022-09-15T10:14:36.653Z,17.85
2022-09-15T10:16:40.078Z,17.83
2022-09-15T10:18:43.776Z,17.87
2022-09-15T10:20:50.748Z,17.90
2022-09-15T10:23:03.832Z,17.63
2022-09-15T10:25:55.221Z,17.91
2022-09-15T10:28:04.261Z,17.88
2022-09-15T10:30:18.524Z,17.88
2022-09-15T10:32:25.888Z,17.78
2022-09-15T10:34:31.583Z,17.84
2022-09-15T10:36:35.037Z,17.78
2022-09-15T10:38:43.087Z,17.87
2022-09-15T10:40:56.861Z,17.67
2022-09-15T10:43:10.502Z,17.92
2022-09-15T10:45:34.814Z,18.00
2022-09-15T10:47:49.900Z,18.14
2022-09-15T10:50:06.905Z,18.12
2022-09-15T10:52:20.548Z,18.00
2022-09-15T10:54:42.045Z,18.09
2022-09-15T10:56:50.132Z,18.13
2022-09-15T10:59:03.945Z,18.15
2022-09-15T11:01:25.032Z,18.12
2022-09-15T11:03:49.834Z,18.18
2022-09-15T11:06:04.014Z,18.27
2022-09-15T11:08:35.507Z,18.27
2022-09-15T11:10:46.931Z,18.21
2022-09-15T11:13:01.925Z,18.03
2022-09-15T11:15:18.727Z,18.04
2022-09-15T11:17:41.795Z,18.09
2022-09-15T11:20:02.799Z,18.19
2022-09-15T11:22:12.142Z,18.17
2022-09-15T11:24:28.304Z,17.93
2022-09-15T11:26:37.969Z,17.77
2022-09-15T11:28:50.764Z,17.57
2022-09-15T11:31:00.751Z,17.47
2022-09-15T11:33:12.339Z,17.55
2022-09-15T11:35:34.175Z,17.55
2022-09-15T11:37:42.080Z,17.29
2022-09-15T11:39:52.125Z,18.30
2022-09-15T11:42:02.155Z,18.69
2022-09-15T11:44:19.807Z,18.91
2022-09-15T11:46:31.020Z,19.12
2022-09-15T11:48:41.192Z,19.19
2022-09-15T11:50:47.451Z,19.34
2022-09-15T11:52:56.230Z,19.59
2022-09-15T11:55:06.150Z,19.95
2022-09-15T11:57:19.240Z,19.53
2022-09-15T11:59:31.608Z,19.26
2022-09-15T12:01:41.181Z,19.26
2022-09-15T12:03:52.745Z,19.17
2022-09-15T12:05:59.552Z,18.94
2022-09-15T12:08:10.333Z,18.67
2022-09-15T12:10:18.959Z,18.70
2022-09-15T12:12:25.386Z,18.68
2022-09-15T12:14:36.764Z,18.74
2022-09-15T12:16:41.020Z,18.66
2022-09-15T12:18:52.710Z,18.75
2022-09-15T12:21:02.876Z,18.53
2022-09-15T12:23:16.591Z,18.52
2022-09-15T12:25:25.843Z,18.35
2022-09-15T12:27:29.595Z,18.92
2022-09-15T12:29:42.139Z,19.11
2022-09-15T12:31:47.056Z,19.11
2022-09-15T12:33:56.481Z,19.07
2022-09-15T12:36:34.042Z,19.11
2022-09-15T12:38:37.367Z,19.00
2022-09-15T12:40:41.737Z,19.09
2022-09-15T12:42:47.414Z,19.14
2022-09-15T12:44:55.701Z,18.91
2022-09-15T12:47:01.476Z,18.47
2022-09-15T12:49:05.404Z,18.45
2022-09-15T12:51:11.769Z,18.46
2022-09-15T12:53:22.043Z,18.36
2022-09-15T12:55:28.365Z,18.21
2022-09-15T12:57:36.281Z,18.25
2022-09-15T12:59:39.950Z,18.30
2022-09-15T13:01:51.171Z,18.26
2022-09-15T13:04:25.648Z,18.23
2022-09-15T13:06:30.117Z,18.41
2022-09-15T13:09:16.377Z,18.42
2022-09-15T13:11:25.427Z,18.36
2022-09-15T13:13:38.389Z,18.50
2022-09-15T13:15:46.769Z,18.53
2022-09-15T13:17:52.090Z,18.40
2022-09-15T13:19:59.695Z,18.23
2022-09-15T13:22:08.736Z,18.34
2022-09-15T13:24:20.356Z,18.31
2022-09-15T13:26:28.212Z,18.15
2022-09-15T13:28:32.362Z,18.07
2022-09-15T13:30:45.245Z,18.17
2022-09-15T13:32:59.209Z,18.17
2022-09-15T13:35:27.776Z,18.17
2022-09-15T13:40:39.377Z,18.11
2022-09-15T13:42:58.330Z,17.94
2022-09-15T13:45:17.670Z,18.12
2022-09-15T13:47:35.733Z,18.09
2022-09-15T13:50:05.318Z,18.27
2022-09-15T13:52:22.800Z,18.15
2022-09-15T13:54:26.245Z,17.94
2022-09-15T13:56:35.478Z,17.85
2022-09-15T13:59:12.978Z,17.78
2022-09-15T14:01:08.031Z,17.64
2022-09-15T14:03:16.267Z,17.59
2022-09-15T14:05:24.034Z,17.59
2022-09-15T14:07:27.824Z,17.60
2022-09-15T14:09:34.247Z,17.54
2022-09-15T14:11:39.548Z,17.51
2022-09-15T14:13:45.691Z,17.40
2022-09-15T14:16:04.229Z,17.42
2022-09-15T14:18:19.433Z,17.51
2022-09-15T14:20:27.661Z,17.43
2022-09-15T14:22:33.178Z,17.42
2022-09-15T14:24:41.452Z,17.33
2022-09-15T14:26:44.884Z,17.32
2022-09-15T14:28:53.548Z,17.44
2022-09-15T14:30:56.946Z,17.55
2022-09-15T14:33:02.441Z,17.60
2022-09-15T14:35:08.506Z,17.30
2022-09-15T14:37:20.787Z,17.75
2022-09-15T14:39:24.783Z,17.76
2022-09-15T14:41:33.065Z,17.65
2022-09-15T14:43:39.343Z,17.59
2022-09-15T14:45:55.772Z,17.52
2022-09-15T14:48:04.336Z,17.52
2022-09-15T14:50:09.918Z,17.54
2022-09-15T14:52:31.682Z,17.58
2022-09-15T14:54:38.861Z,17.63
2022-09-15T14:56:44.176Z,17.63
2022-09-15T14:58:51.928Z,17.64
2022-09-15T15:01:01.423Z,17.54
2022-09-15T15:03:20.254Z,17.68
2022-09-15T15:05:27.335Z,17.73
2022-09-15T15:07:36.208Z,17.80
2022-09-15T15:09:47.078Z,17.52
2022-09-15T15:11:57.752Z,17.69
2022-09-15T15:14:02.737Z,17.69
2022-09-15T15:16:08.979Z,17.67
2022-09-15T15:18:32.187Z,17.66
2022-09-15T15:20:35.805Z,17.62
2022-09-15T15:22:42.319Z,17.59
2022-09-15T15:24:49.175Z,17.62
2022-09-15T15:26:52.851Z,17.70
2022-09-15T15:28:56.258Z,17.72
2022-09-15T15:31:18.831Z,17.63
2022-09-15T15:33:27.140Z,17.51
2022-09-15T15:35:32.128Z,17.52
2022-09-15T15:37:36.103Z,17.44
2022-09-15T15:39:41.033Z,17.45
2022-09-15T15:41:44.569Z,17.39
2022-09-15T15:43:59.285Z,17.39
2022-09-15T15:46:04.924Z,17.42
2022-09-15T15:48:10.816Z,17.37
2022-09-15T15:50:15.958Z,17.43
2022-09-15T15:52:19.345Z,17.51
2022-09-15T15:54:23.078Z,17.51
2022-09-15T15:56:27.796Z,17.53
2022-09-15T15:58:31.387Z,17.50
2022-09-15T16:00:39.642Z,17.43
2022-09-15T16:02:43.627Z,17.51
2022-09-15T16:04:47.063Z,17.45
2022-09-15T16:06:51.726Z,17.44
2022-09-15T16:08:58.094Z,17.51
2022-09-15T16:11:03.642Z,17.41
2022-09-15T16:13:10.300Z,17.48
2022-09-15T16:15:16.869Z,17.34
2022-09-15T16:17:20.349Z,17.41
2022-09-15T16:19:23.757Z,17.36
2022-09-15T16:21:36.746Z,17.44
2022-09-15T16:23:40.384Z,17.41
2022-09-15T16:25:49.759Z,17.28
2022-09-15T16:27:53.213Z,17.32
2022-09-15T16:29:57.913Z,17.34
2022-09-15T16:32:01.306Z,17.40
2022-09-15T16:34:04.814Z,17.45
2022-09-15T16:36:12.964Z,17.12
2022-09-15T16:38:16.547Z,17.45
2022-09-15T16:40:19.889Z,17.44
2022-09-15T16:42:23.416Z,17.41
2022-09-15T16:44:27.224Z,17.38
2022-09-15T16:46:31.937Z,17.37
2022-09-15T16:48:35.522Z,17.39
2022-09-15T16:50:42.657Z,17.33
2022-09-15T16:52:50.426Z,17.26
2022-09-15T16:54:53.776Z,17.25
2022-09-15T16:56:57.186Z,17.27
2022-09-15T16:59:00.899Z,17.31
2022-09-15T17:01:04.965Z,17.23
2022-09-15T17:03:10.174Z,17.12
2022-09-15T17:05:18.167Z,17.22
2022-09-15T17:07:21.863Z,17.21
2022-09-15T17:09:25.402Z,17.14
2022-09-15T17:11:30.423Z,17.09
2022-09-15T17:13:35.350Z,17.17
2022-09-15T17:15:41.205Z,17.16
2022-09-15T17:17:45.327Z,17.12
2022-09-15T17:19:50.177Z,17.11
2022-09-15T17:21:53.748Z,17.08
2022-09-15T17:23:57.121Z,17.10
2022-09-15T17:26:04.143Z,17.10
2022-09-15T17:28:07.742Z,16.99
2022-09-15T17:30:13.671Z,17.06
2022-09-15T17:32:17.179Z,17.05
2022-09-15T17:34:20.661Z,16.94
2022-09-15T17:36:25.828Z,16.78
2022-09-15T17:38:29.340Z,16.75
2022-09-15T17:40:33.428Z,16.80
2022-09-15T17:42:36.849Z,16.86
2022-09-15T17:44:40.209Z,16.85
2022-09-15T17:46:43.748Z,16.53
2022-09-15T17:48:47.307Z,16.72
2022-09-15T17:50:51.480Z,16.83
2022-09-15T17:52:56.944Z,16.71
2022-09-15T17:55:02.153Z,16.76
2022-09-15T17:57:06.132Z,16.72
2022-09-15T17:59:13.058Z,16.85
2022-09-15T18:01:19.735Z,16.88
2022-09-15T18:03:27.616Z,16.77
2022-09-15T18:05:33.156Z,16.77
2022-09-15T18:07:36.840Z,16.78
2022-09-15T18:09:41.617Z,16.77
2022-09-15T18:11:45.147Z,16.82
2022-09-15T18:13:48.631Z,16.76
2022-09-15T18:15:52.567Z,16.73
2022-09-15T18:17:58.276Z,16.53
2022-09-15T18:20:01.919Z,16.66
2022-09-15T18:22:05.495Z,16.70
2022-09-15T18:24:10.578Z,16.74
2022-09-15T18:26:15.543Z,16.72
2022-09-15T18:28:20.148Z,16.71
2022-09-15T18:30:25.913Z,16.69
2022-09-15T18:32:29.654Z,16.57
2022-09-15T18:34:33.483Z,16.54
2022-09-15T18:36:37.092Z,16.51
2022-09-15T18:38:40.977Z,16.58
2022-09-15T18:40:49.098Z,16.59
2022-09-15T18:42:56.662Z,16.33
2022-09-15T18:45:00.558Z,16.52
2022-09-15T18:47:04.060Z,16.53
2022-09-15T18:49:09.437Z,16.50
2022-09-15T18:51:19.655Z,16.56
2022-09-15T18:53:27.982Z,16.53
2022-09-15T18:55:31.799Z,16.55
2022-09-15T18:57:35.530Z,16.56
2022-09-15T18:59:40.508Z,16.53
2022-09-15T19:01:44.086Z,16.57
2022-09-15T19:03:47.685Z,16.60
2022-09-15T19:05:51.384Z,16.58
2022-09-15T19:07:55.548Z,16.59
2022-09-15T19:09:59.150Z,16.54
2022-09-15T19:12:03.611Z,16.53
2022-09-15T19:14:07.907Z,16.46
2022-09-15T19:16:13.667Z,16.47
2022-09-15T19:18:17.453Z,16.48
2022-09-15T19:20:21.327Z,16.37
2022-09-15T19:22:24.924Z,16.47
2022-09-15T19:24:33.523Z,16.52
2022-09-15T19:26:37.312Z,16.53
2022-09-15T19:28:40.854Z,16.49
2022-09-15T19:30:44.651Z,16.42
2022-09-15T19:32:49.686Z,16.47
2022-09-15T19:34:53.260Z,16.37
2022-09-15T19:36:57.129Z,16.34
2022-09-15T19:39:03.130Z,16.26
2022-09-15T19:41:09.305Z,16.04
2022-09-15T19:43:12.794Z,15.90
2022-09-15T19:45:16.358Z,16.14
2022-09-15T19:47:20.131Z,16.20
2022-09-15T19:49:25.696Z,16.11
2022-09-15T19:51:29.171Z,16.37
2022-09-15T19:53:32.692Z,16.37
2022-09-15T19:55:36.247Z,16.35
2022-09-15T19:57:40.540Z,16.23
2022-09-15T19:59:44.744Z,16.36
2022-09-15T20:01:48.296Z,16.55
2022-09-15T20:03:54.464Z,16.30
2022-09-15T20:05:59.478Z,16.22
2022-09-15T20:08:03.751Z,16.22
2022-09-15T20:10:07.691Z,16.17
2022-09-15T20:12:11.281Z,16.23
2022-09-15T20:14:15.810Z,16.29
2022-09-15T20:16:21.236Z,16.12
2022-09-15T20:18:25.210Z,16.13
2022-09-15T20:20:28.702Z,16.18
2022-09-15T20:22:33.731Z,16.09
2022-09-15T20:24:37.189Z,16.07
2022-09-15T20:26:40.989Z,16.02
2022-09-15T20:28:45.281Z,15.91
2022-09-15T20:30:58.681Z,15.77
2022-09-15T20:33:02.298Z,15.79
2022-09-15T20:35:06.444Z,15.69
2022-09-15T20:37:10.080Z,15.72
2022-09-15T20:39:18.237Z,15.79
2022-09-15T20:41:24.912Z,15.80
2022-09-15T20:43:29.128Z,15.91
2022-09-15T20:45:36.995Z,15.87
2022-09-15T20:47:40.852Z,15.91
2022-09-15T20:49:44.403Z,15.84
2022-09-15T20:51:48.807Z,15.77
2022-09-15T20:53:55.397Z,15.80
2022-09-15T20:56:00.829Z,15.69
2022-09-15T20:58:04.427Z,15.40
2022-09-15T21:00:09.952Z,15.70
2022-09-15T21:02:13.623Z,15.53
2022-09-15T21:04:17.332Z,15.48
2022-09-15T21:06:22.951Z,15.25
2022-09-15T21:08:26.509Z,15.29
2022-09-15T21:10:30.599Z,15.08
2022-09-15T21:12:35.415Z,15.28
2022-09-15T21:14:38.878Z,15.33
2022-09-15T21:16:43.448Z,15.25
2022-09-15T21:18:47.472Z,15.30
2022-09-15T21:20:56.396Z,15.34
2022-09-15T21:23:00.048Z,15.40
2022-09-15T21:25:03.672Z,15.35
2022-09-15T21:27:24.663Z,15.30
2022-09-15T21:29:31.358Z,15.28
2022-09-15T21:31:34.911Z,15.28
2022-09-15T21:33:39.568Z,15.26
2022-09-15T21:35:43.125Z,15.23
2022-09-15T21:37:46.518Z,15.21
2022-09-15T21:39:50.269Z,15.17
2022-09-15T21:41:54.103Z,15.23
2022-09-15T21:43:58.979Z,15.34
2022-09-15T21:46:05.768Z,15.29
2022-09-15T21:48:09.555Z,15.20
2022-09-15T21:50:13.021Z,15.19
2022-09-15T21:52:17.006Z,15.20
2022-09-15T21:54:20.711Z,15.18
2022-09-15T21:56:24.882Z,15.11
2022-09-15T21:58:32.011Z,15.16
2022-09-15T22:00:40.161Z,15.13
2022-09-15T22:02:45.065Z,15.14
2022-09-15T22:04:48.683Z,15.10
2022-09-15T22:06:52.504Z,15.15
2022-09-15T22:08:56.758Z,15.16
2022-09-15T22:11:01.076Z,15.15
2022-09-15T22:13:05.531Z,14.97
2022-09-15T22:15:09.657Z,15.04
2022-09-15T22:17:13.968Z,15.05
2022-09-15T22:19:19.076Z,15.04
2022-09-15T22:21:24.587Z,15.09
2022-09-15T22:23:28.531Z,14.91
2022-09-15T22:25:33.685Z,14.92
2022-09-15T22:27:37.416Z,14.96
2022-09-15T22:29:40.904Z,15.00
2022-09-15T22:31:44.443Z,14.88
2022-09-15T22:33:48.923Z,14.89
2022-09-15T22:35:54.268Z,14.85
2022-09-15T22:37:57.814Z,14.87
2022-09-15T22:40:01.475Z,14.71
2022-09-15T22:42:05.212Z,14.86
2022-09-15T22:44:18.641Z,14.91
2022-09-15T22:46:22.360Z,14.86
2022-09-15T22:48:25.919Z,14.88
2022-09-15T22:50:29.352Z,14.73
2022-09-15T22:52:34.228Z,14.75
2022-09-15T22:54:37.827Z,14.58
2022-09-15T22:56:41.245Z,14.58
2022-09-15T22:58:45.228Z,14.60
2022-09-15T23:00:49.190Z,14.48
2022-09-15T23:02:53.023Z,14.59
2022-09-15T23:04:56.556Z,14.72
2022-09-15T23:07:00.278Z,14.71
2022-09-15T23:09:07.753Z,14.77
2022-09-15T23:11:13.809Z,14.70
2022-09-15T23:13:18.065Z,14.69
2022-09-15T23:15:21.784Z,14.70
2022-09-15T23:17:25.797Z,14.68
2022-09-15T23:19:29.302Z,14.70
2022-09-15T23:21:32.829Z,14.69
2022-09-15T23:23:37.609Z,14.68
2022-09-15T23:25:42.575Z,14.40
2022-09-15T23:27:46.725Z,14.50
2022-09-15T23:29:50.322Z,14.62
2022-09-15T23:31:54.029Z,14.62
2022-09-15T23:33:57.573Z,14.53
2022-09-15T23:36:01.902Z,14.59
2022-09-15T23:38:05.279Z,14.53
2022-09-15T23:40:09.592Z,14.45
2022-09-15T23:42:18.669Z,14.44
2022-09-15T23:44:22.520Z,14.40
2022-09-15T23:46:26.197Z,14.26
2022-09-15T23:48:31.568Z,14.34
2022-09-15T23:50:36.334Z,14.31
2022-09-15T23:52:39.745Z,14.30
2022-09-15T23:54:43.981Z,14.37
2022-09-15T23:56:47.476Z,14.44
2022-09-15T23:58:52.204Z,14.44
